aviador You're here:

EPBY Decoded Metar

BYDGOSZCZ in POLAND
Report Time2018-05-23 20:30:00
UTC Time2018-05-23 20:42:24
Flight Rules vfr VFR
Wind060° at 07 kt
W.Decomp.*RWY 08: 6.3 kt HW 3 kt LCW
W.Rank060° ranks 16
Current wind is above 060° avg. (6.0)
Visibility9999 m
Phenomena:N/A
Clouds:N/A
Expected CloudBase > 2,800 ft AGL from Temp-Dew spread
CeilingNone
Temp15°C (ISA 0)
Dew Point08°C (63% RH)
AAT12.0°C
QNH1025 hPa
Density Alt30 ft
Elevation233 ft
Report Wrong Elevation
Raw Report
METAR EPBY 232030Z 06007KT CAVOK 15/08 Q1025 =

Extra information for EPBY:More info

Metar Taf Metar & Taf Last 4 Metars F.Rules Stats Wind Profile Meteogram Temp Stats Airport Information Weather charts Add Link Nearby VenuesMetar ALERT Operation Metar Decoded Social comments